Terminal Aerodrome Forecast
Issued by NWS

Home | Current Version | Previous Version | Text Only | Print | Product List | Glossary On
Versions: 1 2 3 4 5 6 7 8 9 10 11 12 13 14 15 16 17 18
000
FTUS43 KIND 221730
TAFBMG
TAF
KBMG 221730Z 2218/2318 08010KT P6SM OVC010
     FM230200 10005KT P6SM OVC010
     FM230500 11006KT P6SM -RA OVC008
     FM230600 11006KT 4SM RA OVC003
     FM230900 14006KT 2SM RA OVC003
     FM231000 15006KT 1 1/2SM RA OVC003 WS020/21035KT
     FM231400 23007KT 1SM SHRA OVC003
     FM231700 26007KT 5SM SHRA OVC008=

USA.gov is the U.S. government's official web portal to all federal, state and local government web resources and services.